sensor_id;sensor_type;location;lat;lon;timestamp;pressure;altitude;pressure_sealevel;temperature
12061;BMP180;6091;51.432;6.880;2024-01-10T00:02:08;102234.00;;;20.60
12061;BMP180;6091;51.432;6.880;2024-01-10T00:04:36;102241.00;;;20.60
12061;BMP180;6091;51.432;6.880;2024-01-10T00:07:03;102245.00;;;20.60
12061;BMP180;6091;51.432;6.880;2024-01-10T00:09:32;102240.00;;;20.60
12061;BMP180;6091;51.432;6.880;2024-01-10T00:11:59;102235.00;;;20.60
12061;BMP180;6091;51.432;6.880;2024-01-10T00:14:27;102237.00;;;20.60
12061;BMP180;6091;51.432;6.880;2024-01-10T00:16:54;102241.00;;;20.50
12061;BMP180;6091;51.432;6.880;2024-01-10T00:19:21;102240.00;;;20.50
12061;BMP180;6091;51.432;6.880;2024-01-10T00:21:48;102228.00;;;20.50
12061;BMP180;6091;51.432;6.880;2024-01-10T00:24:15;102223.00;;;20.50
12061;BMP180;6091;51.432;6.880;2024-01-10T00:26:43;102220.00;;;20.50
12061;BMP180;6091;51.432;6.880;2024-01-10T00:29:10;102218.00;;;20.50
12061;BMP180;6091;51.432;6.880;2024-01-10T00:31:38;102215.00;;;20.50
12061;BMP180;6091;51.432;6.880;2024-01-10T00:34:05;102208.00;;;20.50
12061;BMP180;6091;51.432;6.880;2024-01-10T00:36:32;102213.00;;;20.50
12061;BMP180;6091;51.432;6.880;2024-01-10T00:38:59;102212.00;;;20.40
12061;BMP180;6091;51.432;6.880;2024-01-10T00:41:26;102216.00;;;20.40
12061;BMP180;6091;51.432;6.880;2024-01-10T00:43:53;102212.00;;;20.40
12061;BMP180;6091;51.432;6.880;2024-01-10T00:46:21;102213.00;;;20.40
12061;BMP180;6091;51.432;6.880;2024-01-10T00:48:48;102205.00;;;20.40
12061;BMP180;6091;51.432;6.880;2024-01-10T00:51:15;102208.00;;;20.40
12061;BMP180;6091;51.432;6.880;2024-01-10T00:53:42;102206.00;;;20.40
12061;BMP180;6091;51.432;6.880;2024-01-10T00:56:09;102207.00;;;20.40
12061;BMP180;6091;51.432;6.880;2024-01-10T00:58:36;102202.00;;;20.40
12061;BMP180;6091;51.432;6.880;2024-01-10T01:01:04;102198.00;;;20.40
12061;BMP180;6091;51.432;6.880;2024-01-10T01:03:31;102199.00;;;20.30
12061;BMP180;6091;51.432;6.880;2024-01-10T01:05:59;102195.00;;;20.30
12061;BMP180;6091;51.432;6.880;2024-01-10T01:08:26;102196.00;;;20.30
12061;BMP180;6091;51.432;6.880;2024-01-10T01:10:54;102195.00;;;20.30
12061;BMP180;6091;51.432;6.880;2024-01-10T01:13:21;102197.00;;;20.30
12061;BMP180;6091;51.432;6.880;2024-01-10T01:15:48;102200.00;;;20.30
12061;BMP180;6091;51.432;6.880;2024-01-10T01:18:16;102191.00;;;20.30
12061;BMP180;6091;51.432;6.880;2024-01-10T01:20:43;102191.00;;;20.30
12061;BMP180;6091;51.432;6.880;2024-01-10T01:23:10;102194.00;;;20.20
12061;BMP180;6091;51.432;6.880;2024-01-10T01:25:38;102188.00;;;20.20
12061;BMP180;6091;51.432;6.880;2024-01-10T01:28:05;102187.00;;;20.20
12061;BMP180;6091;51.432;6.880;2024-01-10T01:30:32;102190.00;;;20.20
12061;BMP180;6091;51.432;6.880;2024-01-10T01:33:00;102184.00;;;20.20
12061;BMP180;6091;51.432;6.880;2024-01-10T01:35:30;102186.00;;;20.20
12061;BMP180;6091;51.432;6.880;2024-01-10T01:37:58;102184.00;;;20.20
12061;BMP180;6091;51.432;6.880;2024-01-10T01:40:25;102180.00;;;20.20
12061;BMP180;6091;51.432;6.880;2024-01-10T01:42:52;102177.00;;;20.20
12061;BMP180;6091;51.432;6.880;2024-01-10T01:45:21;102168.00;;;20.20
12061;BMP180;6091;51.432;6.880;2024-01-10T01:47:49;102167.00;;;20.20
12061;BMP180;6091;51.432;6.880;2024-01-10T01:50:23;102166.00;;;20.10
12061;BMP180;6091;51.432;6.880;2024-01-10T01:52:50;102161.00;;;20.10
12061;BMP180;6091;51.432;6.880;2024-01-10T01:55:18;102165.00;;;20.10
12061;BMP180;6091;51.432;6.880;2024-01-10T01:57:45;102168.00;;;20.10
12061;BMP180;6091;51.432;6.880;2024-01-10T02:00:12;102159.00;;;20.10
12061;BMP180;6091;51.432;6.880;2024-01-10T02:02:40;102162.00;;;20.10
12061;BMP180;6091;51.432;6.880;2024-01-10T02:05:08;102153.00;;;20.10
12061;BMP180;6091;51.432;6.880;2024-01-10T02:08:19;102169.00;;;20.00
12061;BMP180;6091;51.432;6.880;2024-01-10T02:10:56;102170.00;;;20.00
12061;BMP180;6091;51.432;6.880;2024-01-10T02:13:23;102169.00;;;20.00
12061;BMP180;6091;51.432;6.880;2024-01-10T02:15:51;102177.00;;;20.00
12061;BMP180;6091;51.432;6.880;2024-01-10T02:18:19;102160.00;;;20.00
12061;BMP180;6091;51.432;6.880;2024-01-10T02:20:46;102158.00;;;20.00
12061;BMP180;6091;51.432;6.880;2024-01-10T02:23:14;102167.00;;;20.00
12061;BMP180;6091;51.432;6.880;2024-01-10T02:25:42;102157.00;;;20.00
12061;BMP180;6091;51.432;6.880;2024-01-10T02:28:10;102157.00;;;20.00
12061;BMP180;6091;51.432;6.880;2024-01-10T02:30:37;102151.00;;;20.00
12061;BMP180;6091;51.432;6.880;2024-01-10T02:33:05;102158.00;;;19.90
12061;BMP180;6091;51.432;6.880;2024-01-10T02:35:33;102158.00;;;20.00
12061;BMP180;6091;51.432;6.880;2024-01-10T02:38:02;102153.00;;;19.90
12061;BMP180;6091;51.432;6.880;2024-01-10T02:40:30;102139.00;;;19.90
12061;BMP180;6091;51.432;6.880;2024-01-10T02:42:57;102140.00;;;19.90
12061;BMP180;6091;51.432;6.880;2024-01-10T02:45:24;102134.00;;;19.90
12061;BMP180;6091;51.432;6.880;2024-01-10T02:47:51;102135.00;;;19.90
12061;BMP180;6091;51.432;6.880;2024-01-10T02:50:18;102122.00;;;19.90
12061;BMP180;6091;51.432;6.880;2024-01-10T02:52:46;102138.00;;;19.90
12061;BMP180;6091;51.432;6.880;2024-01-10T02:55:13;102142.00;;;19.90
12061;BMP180;6091;51.432;6.880;2024-01-10T02:57:40;102143.00;;;19.80
12061;BMP180;6091;51.432;6.880;2024-01-10T03:00:08;102149.00;;;19.80
12061;BMP180;6091;51.432;6.880;2024-01-10T03:02:35;102140.00;;;19.80
12061;BMP180;6091;51.432;6.880;2024-01-10T03:05:02;102131.00;;;19.80
12061;BMP180;6091;51.432;6.880;2024-01-10T03:07:30;102132.00;;;19.80
12061;BMP180;6091;51.432;6.880;2024-01-10T03:09:57;102131.00;;;19.80
12061;BMP180;6091;51.432;6.880;2024-01-10T03:12:25;102131.00;;;19.80
12061;BMP180;6091;51.432;6.880;2024-01-10T03:14:52;102126.00;;;19.80
12061;BMP180;6091;51.432;6.880;2024-01-10T03:17:19;102130.00;;;19.80
12061;BMP180;6091;51.432;6.880;2024-01-10T03:19:46;102131.00;;;19.70
12061;BMP180;6091;51.432;6.880;2024-01-10T03:22:14;102132.00;;;19.70
12061;BMP180;6091;51.432;6.880;2024-01-10T03:24:41;102131.00;;;19.70
12061;BMP180;6091;51.432;6.880;2024-01-10T03:27:08;102138.00;;;19.70
12061;BMP180;6091;51.432;6.880;2024-01-10T03:29:35;102140.00;;;19.70
12061;BMP180;6091;51.432;6.880;2024-01-10T03:32:02;102128.00;;;19.70
12061;BMP180;6091;51.432;6.880;2024-01-10T03:34:29;102122.00;;;19.70
12061;BMP180;6091;51.432;6.880;2024-01-10T03:36:56;102118.00;;;19.70
12061;BMP180;6091;51.432;6.880;2024-01-10T03:39:27;102118.00;;;19.70
12061;BMP180;6091;51.432;6.880;2024-01-10T03:41:57;102132.00;;;19.70
12061;BMP180;6091;51.432;6.880;2024-01-10T03:44:27;102129.00;;;19.60
12061;BMP180;6091;51.432;6.880;2024-01-10T03:46:54;102125.00;;;19.60
12061;BMP180;6091;51.432;6.880;2024-01-10T03:49:23;102117.00;;;19.60
12061;BMP180;6091;51.432;6.880;2024-01-10T03:51:50;102113.00;;;19.60
12061;BMP180;6091;51.432;6.880;2024-01-10T03:54:17;102118.00;;;19.60
12061;BMP180;6091;51.432;6.880;2024-01-10T03:56:44;102113.00;;;19.60
12061;BMP180;6091;51.432;6.880;2024-01-10T03:59:11;102119.00;;;19.60
12061;BMP180;6091;51.432;6.880;2024-01-10T04:01:39;102114.00;;;19.60
12061;BMP180;6091;51.432;6.880;2024-01-10T04:04:06;102114.00;;;19.60
12061;BMP180;6091;51.432;6.880;2024-01-10T04:06:33;102121.00;;;19.60
12061;BMP180;6091;51.432;6.880;2024-01-10T04:09:01;102133.00;;;19.60
12061;BMP180;6091;51.432;6.880;2024-01-10T04:11:29;102119.00;;;19.50
12061;BMP180;6091;51.432;6.880;2024-01-10T04:13:56;102117.00;;;19.50
12061;BMP180;6091;51.432;6.880;2024-01-10T04:16:25;102113.00;;;19.50
12061;BMP180;6091;51.432;6.880;2024-01-10T04:18:52;102111.00;;;19.50
12061;BMP180;6091;51.432;6.880;2024-01-10T04:21:20;102106.00;;;19.50
12061;BMP180;6091;51.432;6.880;2024-01-10T04:23:47;102109.00;;;19.50
12061;BMP180;6091;51.432;6.880;2024-01-10T04:26:14;102110.00;;;19.50
12061;BMP180;6091;51.432;6.880;2024-01-10T04:28:41;102113.00;;;19.50
12061;BMP180;6091;51.432;6.880;2024-01-10T04:31:08;102116.00;;;19.50
12061;BMP180;6091;51.432;6.880;2024-01-10T04:33:35;102105.00;;;19.50
12061;BMP180;6091;51.432;6.880;2024-01-10T04:36:03;102096.00;;;19.40
12061;BMP180;6091;51.432;6.880;2024-01-10T04:38:30;102100.00;;;19.40
12061;BMP180;6091;51.432;6.880;2024-01-10T04:40:58;102098.00;;;19.40
12061;BMP180;6091;51.432;6.880;2024-01-10T04:43:25;102095.00;;;19.40
12061;BMP180;6091;51.432;6.880;2024-01-10T04:45:53;102106.00;;;19.40
12061;BMP180;6091;51.432;6.880;2024-01-10T04:48:20;102098.00;;;19.40
12061;BMP180;6091;51.432;6.880;2024-01-10T04:50:47;102099.00;;;19.40
12061;BMP180;6091;51.432;6.880;2024-01-10T04:53:14;102098.00;;;19.40
12061;BMP180;6091;51.432;6.880;2024-01-10T04:55:42;102097.00;;;19.40
12061;BMP180;6091;51.432;6.880;2024-01-10T04:58:09;102098.00;;;19.40
12061;BMP180;6091;51.432;6.880;2024-01-10T05:00:36;102091.00;;;19.40
12061;BMP180;6091;51.432;6.880;2024-01-10T05:03:03;102091.00;;;19.30
12061;BMP180;6091;51.432;6.880;2024-01-10T05:05:30;102098.00;;;19.30
12061;BMP180;6091;51.432;6.880;2024-01-10T05:07:58;102090.00;;;19.30
12061;BMP180;6091;51.432;6.880;2024-01-10T05:10:25;102088.00;;;19.30
12061;BMP180;6091;51.432;6.880;2024-01-10T05:12:52;102078.00;;;19.30
12061;BMP180;6091;51.432;6.880;2024-01-10T05:15:19;102082.00;;;19.30
12061;BMP180;6091;51.432;6.880;2024-01-10T05:17:46;102092.00;;;19.30
12061;BMP180;6091;51.432;6.880;2024-01-10T05:20:14;102097.00;;;19.30
12061;BMP180;6091;51.432;6.880;2024-01-10T05:22:42;102096.00;;;19.30
12061;BMP180;6091;51.432;6.880;2024-01-10T05:25:09;102080.00;;;19.30
12061;BMP180;6091;51.432;6.880;2024-01-10T05:27:36;102099.00;;;19.30
12061;BMP180;6091;51.432;6.880;2024-01-10T05:30:08;102094.00;;;19.30
12061;BMP180;6091;51.432;6.880;2024-01-10T05:32:35;102100.00;;;19.20
12061;BMP180;6091;51.432;6.880;2024-01-10T05:35:04;102100.00;;;19.20
12061;BMP180;6091;51.432;6.880;2024-01-10T05:37:32;102108.00;;;19.20
12061;BMP180;6091;51.432;6.880;2024-01-10T05:39:59;102110.00;;;19.20
12061;BMP180;6091;51.432;6.880;2024-01-10T05:42:27;102097.00;;;19.20
12061;BMP180;6091;51.432;6.880;2024-01-10T05:44:54;102101.00;;;19.20
12061;BMP180;6091;51.432;6.880;2024-01-10T05:47:21;102105.00;;;19.20
12061;BMP180;6091;51.432;6.880;2024-01-10T05:49:48;102100.00;;;19.20
12061;BMP180;6091;51.432;6.880;2024-01-10T05:52:16;102086.00;;;19.20
12061;BMP180;6091;51.432;6.880;2024-01-10T05:54:45;102095.00;;;19.20
12061;BMP180;6091;51.432;6.880;2024-01-10T05:57:12;102088.00;;;19.20
12061;BMP180;6091;51.432;6.880;2024-01-10T05:59:40;102097.00;;;19.20
12061;BMP180;6091;51.432;6.880;2024-01-10T06:02:07;102114.00;;;19.20
12061;BMP180;6091;51.432;6.880;2024-01-10T06:04:34;102102.00;;;19.20
12061;BMP180;6091;51.432;6.880;2024-01-10T06:07:01;102106.00;;;19.20
12061;BMP180;6091;51.432;6.880;2024-01-10T06:09:29;102098.00;;;19.40
12061;BMP180;6091;51.432;6.880;2024-01-10T06:11:56;102101.00;;;19.70
12061;BMP180;6091;51.432;6.880;2024-01-10T06:14:23;102113.00;;;20.20
12061;BMP180;6091;51.432;6.880;2024-01-10T06:16:51;102108.00;;;20.70
12061;BMP180;6091;51.432;6.880;2024-01-10T06:19:20;102110.00;;;21.10
12061;BMP180;6091;51.432;6.880;2024-01-10T06:21:49;102114.00;;;21.50
12061;BMP180;6091;51.432;6.880;2024-01-10T06:24:16;102122.00;;;21.80
12061;BMP180;6091;51.432;6.880;2024-01-10T06:26:43;102128.00;;;22.10
12061;BMP180;6091;51.432;6.880;2024-01-10T06:29:11;102125.00;;;22.40
12061;BMP180;6091;51.432;6.880;2024-01-10T06:31:38;102134.00;;;22.70
12061;BMP180;6091;51.432;6.880;2024-01-10T06:34:05;102134.00;;;23.00
12061;BMP180;6091;51.432;6.880;2024-01-10T06:36:32;102130.00;;;23.30
12061;BMP180;6091;51.432;6.880;2024-01-10T06:39:00;102137.00;;;23.50
12061;BMP180;6091;51.432;6.880;2024-01-10T06:41:27;102146.00;;;23.70
12061;BMP180;6091;51.432;6.880;2024-01-10T06:43:55;102144.00;;;24.00
12061;BMP180;6091;51.432;6.880;2024-01-10T06:46:22;102138.00;;;24.20
12061;BMP180;6091;51.432;6.880;2024-01-10T06:48:49;102120.00;;;24.40
12061;BMP180;6091;51.432;6.880;2024-01-10T06:51:17;102120.00;;;24.60
12061;BMP180;6091;51.432;6.880;2024-01-10T06:53:44;102128.00;;;24.70
12061;BMP180;6091;51.432;6.880;2024-01-10T06:56:11;102134.00;;;24.90
12061;BMP180;6091;51.432;6.880;2024-01-10T06:58:39;102136.00;;;25.10
12061;BMP180;6091;51.432;6.880;2024-01-10T07:01:14;102129.00;;;25.20
12061;BMP180;6091;51.432;6.880;2024-01-10T07:03:41;102139.00;;;25.30
12061;BMP180;6091;51.432;6.880;2024-01-10T07:06:09;102134.00;;;25.40
12061;BMP180;6091;51.432;6.880;2024-01-10T07:08:36;102141.00;;;25.50
12061;BMP180;6091;51.432;6.880;2024-01-10T07:11:03;102145.00;;;25.60
12061;BMP180;6091;51.432;6.880;2024-01-10T07:13:31;102141.00;;;25.70
12061;BMP180;6091;51.432;6.880;2024-01-10T07:15:59;102136.00;;;25.80
12061;BMP180;6091;51.432;6.880;2024-01-10T07:18:29;102142.00;;;25.90
12061;BMP180;6091;51.432;6.880;2024-01-10T07:20:57;102131.00;;;26.00
12061;BMP180;6091;51.432;6.880;2024-01-10T07:23:25;102140.00;;;26.10
12061;BMP180;6091;51.432;6.880;2024-01-10T07:25:53;102146.00;;;26.10
12061;BMP180;6091;51.432;6.880;2024-01-10T07:28:20;102152.00;;;26.20
12061;BMP180;6091;51.432;6.880;2024-01-10T07:30:48;102151.00;;;26.20
12061;BMP180;6091;51.432;6.880;2024-01-10T07:33:15;102152.00;;;26.30
12061;BMP180;6091;51.432;6.880;2024-01-10T07:35:42;102151.00;;;26.30
12061;BMP180;6091;51.432;6.880;2024-01-10T07:38:10;102148.00;;;26.30
12061;BMP180;6091;51.432;6.880;2024-01-10T07:40:37;102150.00;;;26.40
12061;BMP180;6091;51.432;6.880;2024-01-10T07:43:04;102152.00;;;26.60
12061;BMP180;6091;51.432;6.880;2024-01-10T07:45:31;102155.00;;;26.50
12061;BMP180;6091;51.432;6.880;2024-01-10T07:48:00;102147.00;;;26.50
12061;BMP180;6091;51.432;6.880;2024-01-10T07:50:27;102146.00;;;26.50
12061;BMP180;6091;51.432;6.880;2024-01-10T07:52:55;102147.00;;;26.80
12061;BMP180;6091;51.432;6.880;2024-01-10T07:55:23;102148.00;;;26.60
12061;BMP180;6091;51.432;6.880;2024-01-10T07:57:51;102138.00;;;26.60
12061;BMP180;6091;51.432;6.880;2024-01-10T08:00:19;102151.00;;;26.50
12061;BMP180;6091;51.432;6.880;2024-01-10T08:02:48;102143.00;;;26.60
12061;BMP180;6091;51.432;6.880;2024-01-10T08:05:17;102142.00;;;26.60
12061;BMP180;6091;51.432;6.880;2024-01-10T08:07:44;102151.00;;;26.60
12061;BMP180;6091;51.432;6.880;2024-01-10T08:10:11;102148.00;;;26.60
12061;BMP180;6091;51.432;6.880;2024-01-10T08:12:40;102153.00;;;26.60
12061;BMP180;6091;51.432;6.880;2024-01-10T08:15:11;102158.00;;;26.60
12061;BMP180;6091;51.432;6.880;2024-01-10T08:17:39;102155.00;;;26.60
12061;BMP180;6091;51.432;6.880;2024-01-10T08:20:08;102155.00;;;26.60
12061;BMP180;6091;51.432;6.880;2024-01-10T08:22:39;102149.00;;;26.60
12061;BMP180;6091;51.432;6.880;2024-01-10T08:25:08;102159.00;;;26.60
12061;BMP180;6091;51.432;6.880;2024-01-10T08:27:35;102151.00;;;26.90
12061;BMP180;6091;51.432;6.880;2024-01-10T08:30:02;102158.00;;;26.70
12061;BMP180;6091;51.432;6.880;2024-01-10T08:32:32;102161.00;;;26.70
12061;BMP180;6091;51.432;6.880;2024-01-10T08:35:00;102166.00;;;26.90
12061;BMP180;6091;51.432;6.880;2024-01-10T08:37:27;102164.00;;;26.80
12061;BMP180;6091;51.432;6.880;2024-01-10T08:39:55;102170.00;;;26.80
12061;BMP180;6091;51.432;6.880;2024-01-10T08:42:22;102166.00;;;26.80
12061;BMP180;6091;51.432;6.880;2024-01-10T08:44:49;102166.00;;;26.80
12061;BMP180;6091;51.432;6.880;2024-01-10T08:47:16;102156.00;;;26.80
12061;BMP180;6091;51.432;6.880;2024-01-10T08:49:43;102154.00;;;26.80
12061;BMP180;6091;51.432;6.880;2024-01-10T08:52:11;102161.00;;;26.80
12061;BMP180;6091;51.432;6.880;2024-01-10T08:54:38;102168.00;;;26.80
12061;BMP180;6091;51.432;6.880;2024-01-10T08:57:05;102170.00;;;26.80
12061;BMP180;6091;51.432;6.880;2024-01-10T08:59:33;102174.00;;;26.80
12061;BMP180;6091;51.432;6.880;2024-01-10T09:02:01;102181.00;;;26.80
12061;BMP180;6091;51.432;6.880;2024-01-10T09:04:29;102182.00;;;26.80
12061;BMP180;6091;51.432;6.880;2024-01-10T09:06:56;102183.00;;;26.90
12061;BMP180;6091;51.432;6.880;2024-01-10T09:09:23;102179.00;;;26.90
12061;BMP180;6091;51.432;6.880;2024-01-10T09:11:51;102186.00;;;27.00
12061;BMP180;6091;51.432;6.880;2024-01-10T09:14:18;102186.00;;;27.00
12061;BMP180;6091;51.432;6.880;2024-01-10T09:16:45;102182.00;;;27.10
12061;BMP180;6091;51.432;6.880;2024-01-10T09:19:12;102182.00;;;27.10
12061;BMP180;6091;51.432;6.880;2024-01-10T09:21:42;102182.00;;;27.10
12061;BMP180;6091;51.432;6.880;2024-01-10T09:24:09;102191.00;;;27.20
12061;BMP180;6091;51.432;6.880;2024-01-10T09:26:54;102186.00;;;27.30
12061;BMP180;6091;51.432;6.880;2024-01-10T09:29:22;102193.00;;;27.40
12061;BMP180;6091;51.432;6.880;2024-01-10T09:31:50;102192.00;;;27.40
12061;BMP180;6091;51.432;6.880;2024-01-10T09:34:17;102195.00;;;27.50
12061;BMP180;6091;51.432;6.880;2024-01-10T09:36:45;102187.00;;;27.60
12061;BMP180;6091;51.432;6.880;2024-01-10T09:39:12;102190.00;;;27.60
12061;BMP180;6091;51.432;6.880;2024-01-10T09:41:47;102194.00;;;27.70
12061;BMP180;6091;51.432;6.880;2024-01-10T09:44:17;102187.00;;;27.80
12061;BMP180;6091;51.432;6.880;2024-01-10T09:46:54;102190.00;;;27.80
12061;BMP180;6091;51.432;6.880;2024-01-10T09:49:22;102188.00;;;27.90
12061;BMP180;6091;51.432;6.880;2024-01-10T09:51:58;102194.00;;;27.90
12061;BMP180;6091;51.432;6.880;2024-01-10T09:54:34;102191.00;;;27.90
12061;BMP180;6091;51.432;6.880;2024-01-10T09:57:03;102183.00;;;28.00
12061;BMP180;6091;51.432;6.880;2024-01-10T09:59:31;102183.00;;;28.00
12061;BMP180;6091;51.432;6.880;2024-01-10T10:01:58;102186.00;;;28.10
12061;BMP180;6091;51.432;6.880;2024-01-10T10:04:27;102185.00;;;28.10
12061;BMP180;6091;51.432;6.880;2024-01-10T10:07:00;102185.00;;;28.10
12061;BMP180;6091;51.432;6.880;2024-01-10T10:09:30;102191.00;;;28.10
12061;BMP180;6091;51.432;6.880;2024-01-10T10:11:59;102199.00;;;28.10
12061;BMP180;6091;51.432;6.880;2024-01-10T10:14:29;102189.00;;;28.10
12061;BMP180;6091;51.432;6.880;2024-01-10T10:17:17;102192.00;;;28.10
12061;BMP180;6091;51.432;6.880;2024-01-10T10:19:45;102185.00;;;28.10
12061;BMP180;6091;51.432;6.880;2024-01-10T10:22:12;102186.00;;;28.10
12061;BMP180;6091;51.432;6.880;2024-01-10T10:24:41;102185.00;;;28.20
12061;BMP180;6091;51.432;6.880;2024-01-10T10:27:12;102186.00;;;28.20
12061;BMP180;6091;51.432;6.880;2024-01-10T10:29:40;102178.00;;;28.20
12061;BMP180;6091;51.432;6.880;2024-01-10T10:32:07;102182.00;;;28.20
12061;BMP180;6091;51.432;6.880;2024-01-10T10:34:36;102176.00;;;28.50
12061;BMP180;6091;51.432;6.880;2024-01-10T10:37:03;102177.00;;;28.40
12061;BMP180;6091;51.432;6.880;2024-01-10T10:39:31;102176.00;;;28.50
12061;BMP180;6091;51.432;6.880;2024-01-10T10:42:01;102178.00;;;28.40
12061;BMP180;6091;51.432;6.880;2024-01-10T10:44:33;102180.00;;;28.50
12061;BMP180;6091;51.432;6.880;2024-01-10T10:47:06;102180.00;;;28.80
12061;BMP180;6091;51.432;6.880;2024-01-10T10:49:53;102178.00;;;28.60
12061;BMP180;6091;51.432;6.880;2024-01-10T10:52:22;102175.00;;;28.60
12061;BMP180;6091;51.432;6.880;2024-01-10T10:54:52;102175.00;;;28.60
12061;BMP180;6091;51.432;6.880;2024-01-10T10:57:27;102175.00;;;28.60
12061;BMP180;6091;51.432;6.880;2024-01-10T10:59:57;102173.00;;;28.70
12061;BMP180;6091;51.432;6.880;2024-01-10T11:02:24;102173.00;;;28.70
12061;BMP180;6091;51.432;6.880;2024-01-10T11:04:59;102176.00;;;28.80
12061;BMP180;6091;51.432;6.880;2024-01-10T11:07:29;102164.00;;;29.00
12061;BMP180;6091;51.432;6.880;2024-01-10T11:09:57;102168.00;;;28.90
12061;BMP180;6091;51.432;6.880;2024-01-10T11:18:33;102167.00;;;29.50
12061;BMP180;6091;51.432;6.880;2024-01-10T11:24:01;102173.00;;;29.50
12061;BMP180;6091;51.432;6.880;2024-01-10T11:26:29;102172.00;;;29.60
12061;BMP180;6091;51.432;6.880;2024-01-10T11:29:00;102169.00;;;29.70
12061;BMP180;6091;51.432;6.880;2024-01-10T11:31:31;102166.00;;;29.70
12061;BMP180;6091;51.432;6.880;2024-01-10T11:34:01;102163.00;;;29.80
12061;BMP180;6091;51.432;6.880;2024-01-10T11:36:31;102163.00;;;29.80
12061;BMP180;6091;51.432;6.880;2024-01-10T11:39:05;102160.00;;;29.90
12061;BMP180;6091;51.432;6.880;2024-01-10T11:41:36;102155.00;;;29.90
12061;BMP180;6091;51.432;6.880;2024-01-10T11:46:46;102157.00;;;30.00
12061;BMP180;6091;51.432;6.880;2024-01-10T11:49:19;102153.00;;;30.10
12061;BMP180;6091;51.432;6.880;2024-01-10T11:51:50;102144.00;;;30.10
12061;BMP180;6091;51.432;6.880;2024-01-10T11:54:43;102157.00;;;30.20
12061;BMP180;6091;51.432;6.880;2024-01-10T11:57:21;102143.00;;;30.30
12061;BMP180;6091;51.432;6.880;2024-01-10T11:59:56;102144.00;;;30.30
12061;BMP180;6091;51.432;6.880;2024-01-10T12:02:26;102145.00;;;30.60
12061;BMP180;6091;51.432;6.880;2024-01-10T12:04:55;102136.00;;;30.50
12061;BMP180;6091;51.432;6.880;2024-01-10T12:07:23;102136.00;;;30.50
12061;BMP180;6091;51.432;6.880;2024-01-10T12:09:54;102132.00;;;30.60
12061;BMP180;6091;51.432;6.880;2024-01-10T12:12:22;102148.00;;;30.60
12061;BMP180;6091;51.432;6.880;2024-01-10T12:14:50;102145.00;;;30.70
12061;BMP180;6091;51.432;6.880;2024-01-10T12:17:18;102142.00;;;30.70
12061;BMP180;6091;51.432;6.880;2024-01-10T12:19:46;102140.00;;;30.70
12061;BMP180;6091;51.432;6.880;2024-01-10T12:22:19;102141.00;;;30.70
12061;BMP180;6091;51.432;6.880;2024-01-10T12:24:50;102141.00;;;30.80
12061;BMP180;6091;51.432;6.880;2024-01-10T12:27:20;102148.00;;;30.70
12061;BMP180;6091;51.432;6.880;2024-01-10T12:29:52;102133.00;;;30.70
12061;BMP180;6091;51.432;6.880;2024-01-10T12:32:21;102141.00;;;30.70
12061;BMP180;6091;51.432;6.880;2024-01-10T12:35:05;102145.00;;;30.70
12061;BMP180;6091;51.432;6.880;2024-01-10T12:37:34;102142.00;;;30.60
12061;BMP180;6091;51.432;6.880;2024-01-10T12:40:02;102141.00;;;30.60
12061;BMP180;6091;51.432;6.880;2024-01-10T12:42:37;102142.00;;;30.60
12061;BMP180;6091;51.432;6.880;2024-01-10T12:45:05;102145.00;;;30.50
12061;BMP180;6091;51.432;6.880;2024-01-10T12:47:35;102133.00;;;30.50
12061;BMP180;6091;51.432;6.880;2024-01-10T12:50:03;102135.00;;;30.40
12061;BMP180;6091;51.432;6.880;2024-01-10T12:52:31;102141.00;;;30.30
12061;BMP180;6091;51.432;6.880;2024-01-10T12:54:58;102126.00;;;30.30
12061;BMP180;6091;51.432;6.880;2024-01-10T12:57:27;102128.00;;;30.30
12061;BMP180;6091;51.432;6.880;2024-01-10T12:59:54;102133.00;;;30.20
12061;BMP180;6091;51.432;6.880;2024-01-10T13:02:21;102126.00;;;30.20
12061;BMP180;6091;51.432;6.880;2024-01-10T13:04:49;102135.00;;;30.20
12061;BMP180;6091;51.432;6.880;2024-01-10T13:07:19;102136.00;;;30.20
12061;BMP180;6091;51.432;6.880;2024-01-10T13:09:46;102138.00;;;30.20
12061;BMP180;6091;51.432;6.880;2024-01-10T13:12:13;102135.00;;;30.20
12061;BMP180;6091;51.432;6.880;2024-01-10T13:14:41;102133.00;;;30.10
12061;BMP180;6091;51.432;6.880;2024-01-10T13:17:09;102122.00;;;30.10
12061;BMP180;6091;51.432;6.880;2024-01-10T13:19:37;102127.00;;;30.10
12061;BMP180;6091;51.432;6.880;2024-01-10T13:22:04;102138.00;;;30.10
12061;BMP180;6091;51.432;6.880;2024-01-10T13:24:36;102128.00;;;30.10
12061;BMP180;6091;51.432;6.880;2024-01-10T13:27:03;102132.00;;;30.10
12061;BMP180;6091;51.432;6.880;2024-01-10T13:29:31;102135.00;;;30.10
12061;BMP180;6091;51.432;6.880;2024-01-10T13:31:59;102141.00;;;30.00
12061;BMP180;6091;51.432;6.880;2024-01-10T13:34:27;102142.00;;;30.00
12061;BMP180;6091;51.432;6.880;2024-01-10T13:36:54;102143.00;;;30.00
12061;BMP180;6091;51.432;6.880;2024-01-10T13:39:22;102138.00;;;29.90
12061;BMP180;6091;51.432;6.880;2024-01-10T13:41:50;102144.00;;;29.90
12061;BMP180;6091;51.432;6.880;2024-01-10T13:44:18;102142.00;;;29.90
12061;BMP180;6091;51.432;6.880;2024-01-10T13:46:47;102144.00;;;29.80
12061;BMP180;6091;51.432;6.880;2024-01-10T13:49:19;102147.00;;;29.80
12061;BMP180;6091;51.432;6.880;2024-01-10T13:51:47;102150.00;;;29.70
12061;BMP180;6091;51.432;6.880;2024-01-10T13:54:14;102151.00;;;29.70
12061;BMP180;6091;51.432;6.880;2024-01-10T13:56:43;102152.00;;;29.70
12061;BMP180;6091;51.432;6.880;2024-01-10T13:59:11;102143.00;;;29.60
12061;BMP180;6091;51.432;6.880;2024-01-10T14:01:39;102148.00;;;29.60
12061;BMP180;6091;51.432;6.880;2024-01-10T14:04:06;102146.00;;;29.50
12061;BMP180;6091;51.432;6.880;2024-01-10T14:06:34;102153.00;;;29.50
12061;BMP180;6091;51.432;6.880;2024-01-10T14:09:01;102153.00;;;29.50
12061;BMP180;6091;51.432;6.880;2024-01-10T14:11:29;102151.00;;;29.40
12061;BMP180;6091;51.432;6.880;2024-01-10T14:13:57;102149.00;;;29.40
12061;BMP180;6091;51.432;6.880;2024-01-10T14:16:25;102149.00;;;29.40
12061;BMP180;6091;51.432;6.880;2024-01-10T14:18:52;102152.00;;;29.40
12061;BMP180;6091;51.432;6.880;2024-01-10T14:21:20;102150.00;;;29.30
12061;BMP180;6091;51.432;6.880;2024-01-10T14:23:48;102155.00;;;29.30
12061;BMP180;6091;51.432;6.880;2024-01-10T14:26:15;102151.00;;;29.30
12061;BMP180;6091;51.432;6.880;2024-01-10T14:28:44;102148.00;;;29.30